Time;durP1;ratioP1;P1;durP2;ratioP2;P2;SDS_P1;SDS_P2;PMS_P1;PMS_P2;Temp;Humidity;BMP_temperature;BMP_pressure;BME280_temperature;BME280_humidity;BME280_pressure;Samples;Min_cycle;Max_cycle;Signal;HPM_P1;HPM_P2
2022/11/26 00:00:19;;;;;;;14.13;7.80;;;;;;;5.36;100.00;101396.84;4992157;28;20210;-74
2022/11/26 00:02:47;;;;;;;16.50;8.60;;;;;;;5.35;100.00;101400.31;4970081;28;20230;-72
2022/11/26 00:05:16;;;;;;;14.73;9.03;;;;;;;5.36;100.00;101401.19;4999763;28;20206;-74
2022/11/26 00:07:53;;;;;;;12.67;7.93;;;;;;;5.33;100.00;101399.44;4981481;28;20558;-73
2022/11/26 00:10:24;;;;;;;13.60;8.83;;;;;;;5.34;100.00;101403.75;4981412;28;20408;-74
2022/11/26 00:12:51;;;;;;;11.87;7.87;;;;;;;5.36;100.00;101408.94;4982672;28;20186;-74
2022/11/26 00:15:20;;;;;;;16.80;9.23;;;;;;;5.35;100.00;101402.91;4981498;28;20202;-74
2022/11/26 00:17:46;;;;;;;15.00;8.83;;;;;;;5.35;100.00;101402.91;4983895;28;20213;-74
2022/11/26 00:20:13;;;;;;;12.53;8.03;;;;;;;5.33;100.00;101409.78;4990267;28;20225;-74
2022/11/26 00:22:42;;;;;;;13.57;9.00;;;;;;;5.33;100.00;101404.63;4989943;28;20289;-75
2022/11/26 00:25:18;;;;;;;12.50;8.07;;;;;;;5.31;100.00;101409.78;4984521;28;20190;-74
2022/11/26 00:27:46;;;;;;;12.70;8.20;;;;;;;5.33;100.00;101412.38;4961364;28;20209;-72
2022/11/26 00:30:19;;;;;;;15.53;8.70;;;;;;;5.32;100.00;101411.50;4973218;28;20220;-73
2022/11/26 00:32:46;;;;;;;17.20;9.43;;;;;;;5.32;100.00;101418.38;4980429;28;20207;-74
2022/11/26 00:35:13;;;;;;;13.00;8.17;;;;;;;5.32;100.00;101415.81;4991324;28;20292;-74
2022/11/26 00:37:42;;;;;;;13.63;8.67;;;;;;;5.32;100.00;101410.63;5011729;28;20235;-74
2022/11/26 00:40:18;;;;;;;15.83;8.97;;;;;;;5.32;100.00;101419.25;4993933;28;20214;-74
2022/11/26 00:42:46;;;;;;;13.77;8.43;;;;;;;5.33;100.00;101420.13;4977785;28;20558;-73
2022/11/26 00:45:17;;;;;;;15.20;9.13;;;;;;;5.34;100.00;101424.44;4993111;28;20216;-74
2022/11/26 00:47:44;;;;;;;13.43;8.17;;;;;;;5.36;100.00;101424.44;4984320;28;20202;-73
2022/11/26 00:50:14;;;;;;;12.50;7.93;;;;;;;5.37;100.00;101428.78;4979094;28;20662;-74
2022/11/26 00:52:40;;;;;;;11.67;8.20;;;;;;;5.36;100.00;101430.47;5002471;28;20692;-74
2022/11/26 00:55:15;;;;;;;12.00;8.13;;;;;;;5.35;100.00;101433.94;4977954;28;20561;-74
2022/11/26 00:57:42;;;;;;;13.87;7.60;;;;;;;5.34;100.00;101437.38;4983824;28;20697;-73
2022/11/26 01:00:16;;;;;;;12.17;8.13;;;;;;;5.32;100.00;101436.50;4993868;28;20221;-74
2022/11/26 01:02:42;;;;;;;12.40;7.80;;;;;;;5.34;100.00;101444.25;4996181;28;20217;-72
2022/11/26 01:05:09;;;;;;;13.13;8.50;;;;;;;5.31;100.00;101439.91;4985232;28;20197;-73
2022/11/26 01:07:35;;;;;;;14.40;8.63;;;;;;;5.34;100.00;101444.25;4976786;28;20226;-74
2022/11/26 01:10:02;;;;;;;12.00;7.20;;;;;;;5.38;100.00;101451.19;4985183;28;20203;-74
2022/11/26 01:12:30;;;;;;;11.83;7.57;;;;;;;5.39;100.00;101453.78;4990860;28;20205;-74
2022/11/26 01:14:56;;;;;;;15.07;8.27;;;;;;;5.41;100.00;101451.22;4987700;28;20213;-74
2022/11/26 01:17:24;;;;;;;14.77;8.83;;;;;;;5.43;100.00;101447.78;4977451;28;20225;-73
2022/11/26 01:19:50;;;;;;;15.40;9.10;;;;;;;5.45;100.00;101450.38;4999300;28;20221;-75
2022/11/26 01:22:20;;;;;;;15.53;8.40;;;;;;;5.44;100.00;101457.28;4990608;28;20222;-73
2022/11/26 01:24:47;;;;;;;16.50;8.93;;;;;;;5.48;100.00;101460.75;4979503;28;20202;-73
2022/11/26 01:27:13;;;;;;;15.43;8.77;;;;;;;5.49;100.00;101463.38;4994914;28;20217;-74
2022/11/26 01:29:40;;;;;;;17.93;10.10;;;;;;;5.51;100.00;101455.63;4985351;28;20677;-73
2022/11/26 01:32:06;;;;;;;16.90;9.50;;;;;;;5.51;100.00;101465.97;4984260;28;20201;-74
2022/11/26 01:34:34;;;;;;;21.67;10.43;;;;;;;5.53;100.00;101465.97;4976890;28;20700;-74
2022/11/26 01:37:00;;;;;;;22.50;10.40;;;;;;;5.52;100.00;101472.00;4975680;28;20582;-73
2022/11/26 01:39:27;;;;;;;20.90;10.53;;;;;;;5.52;100.00;101467.69;4981950;28;20205;-74
2022/11/26 01:42:02;;;;;;;18.40;11.17;;;;;;;5.54;100.00;101472.88;4974901;28;20322;-74
2022/11/26 01:44:31;;;;;;;19.43;10.23;;;;;;;5.53;100.00;101466.84;4985126;28;20211;-74
2022/11/26 01:46:58;;;;;;;26.10;11.47;;;;;;;5.54;100.00;101470.28;4982295;28;20598;-74
2022/11/26 01:49:29;;;;;;;17.50;9.97;;;;;;;5.55;100.00;101475.47;5005384;28;20217;-73
2022/11/26 01:52:03;;;;;;;19.47;10.90;;;;;;;5.55;100.00;101472.03;5000923;28;20617;-73
2022/11/26 01:54:31;;;;;;;22.70;11.27;;;;;;;5.55;100.00;101484.97;4990581;28;20214;-74
2022/11/26 01:57:07;;;;;;;27.63;12.20;;;;;;;5.57;100.00;101478.06;4986561;28;20284;-74
2022/11/26 01:59:38;;;;;;;22.33;11.43;;;;;;;5.59;100.00;101484.13;4990189;28;20202;-74
2022/11/26 02:02:05;;;;;;;22.90;12.00;;;;;;;5.58;100.00;101479.81;4991134;28;20236;-74
2022/11/26 02:04:36;;;;;;;22.87;12.70;;;;;;;5.57;100.00;101486.69;4988975;28;20432;-73
2022/11/26 02:07:04;;;;;;;22.53;11.80;;;;;;;5.59;100.00;101489.28;4992369;28;20706;-75
2022/11/26 02:09:31;;;;;;;26.13;12.80;;;;;;;5.59;100.00;101487.56;4995223;28;20559;-74
2022/11/26 02:12:00;;;;;;;24.80;13.43;;;;;;;5.60;100.00;101496.22;4981129;28;20198;-74
2022/11/26 02:14:30;;;;;;;22.07;12.77;;;;;;;5.60;100.00;101496.22;4998712;28;20721;-74
2022/11/26 02:17:18;;;;;;;27.63;13.23;;;;;;;5.58;100.00;101498.78;4979686;28;20229;-73
2022/11/26 02:20:18;;;;;;;22.33;13.23;;;;;;;5.55;100.00;101503.06;4990428;28;20655;-74
2022/11/26 02:23:15;;;;;;;25.67;14.40;;;;;;;5.58;100.00;101510.88;4995512;28;20406;-72
2022/11/26 02:26:11;;;;;;;24.83;13.73;;;;;;;5.59;100.00;101502.22;4987136;28;20316;-74
2022/11/26 02:28:58;;;;;;;25.53;13.73;;;;;;;5.57;100.00;101507.38;4988061;28;20685;-73
2022/11/26 02:31:33;;;;;;;31.03;13.87;;;;;;;5.58;100.00;101509.13;4978228;28;20934;-73
2022/11/26 02:34:09;;;;;;;35.83;14.77;;;;;;;5.57;100.00;101512.56;4989136;28;20205;-74
2022/11/26 02:36:40;;;;;;;23.27;13.40;;;;;;;5.56;100.00;101510.84;4983608;28;20709;-73
2022/11/26 02:39:12;;;;;;;27.07;14.53;;;;;;;5.56;100.00;101517.72;4983740;28;20220;-74
2022/11/26 02:41:42;;;;;;;32.47;14.40;;;;;;;5.55;100.00;101524.63;5004169;28;20225;-74
2022/11/26 02:44:09;;;;;;;28.30;14.87;;;;;;;5.57;100.00;101519.47;4985100;28;20207;-74
2022/11/26 02:46:38;;;;;;;28.93;13.30;;;;;;;5.56;100.00;101520.31;4981346;28;20217;-74
2022/11/26 02:49:05;;;;;;;29.80;15.20;;;;;;;5.61;100.00;101526.41;4988703;28;20554;-74
2022/11/26 02:51:31;;;;;;;30.53;15.90;;;;;;;5.61;100.00;101534.16;4984768;28;20197;-73
2022/11/26 02:53:59;;;;;;;31.53;15.27;;;;;;;5.60;100.00;101533.28;4995786;28;20289;-73
2022/11/26 02:56:28;;;;;;;27.27;15.40;;;;;;;5.59;100.00;101539.31;4999589;28;20228;-74
2022/11/26 02:58:55;;;;;;;30.27;14.57;;;;;;;5.60;100.00;101537.63;4988718;28;20205;-73
2022/11/26 03:01:28;;;;;;;30.60;15.57;;;;;;;5.61;100.00;101537.63;4979303;28;20796;-74
2022/11/26 03:03:58;;;;;;;29.70;15.27;;;;;;;5.61;100.00;101537.63;4986300;28;20268;-75
2022/11/26 03:06:27;;;;;;;24.13;14.90;;;;;;;5.60;100.00;101548.81;4985613;28;20226;-74
2022/11/26 03:08:55;;;;;;;28.80;14.03;;;;;;;5.59;100.00;101546.22;4991224;28;20213;-74
2022/11/26 03:11:21;;;;;;;27.43;15.67;;;;;;;5.60;100.00;101547.97;4988215;28;20793;-74
2022/11/26 03:13:49;;;;;;;24.73;15.33;;;;;;;5.61;100.00;101550.56;5004824;28;20682;-73
2022/11/26 03:16:15;;;;;;;29.63;14.60;;;;;;;5.62;100.00;101554.88;5003999;28;20635;-74
2022/11/26 03:18:42;;;;;;;27.53;14.60;;;;;;;5.61;100.00;101555.75;4984495;28;20213;-74
2022/11/26 03:21:09;;;;;;;27.60;15.17;;;;;;;5.62;100.00;101562.63;5015647;28;20215;-73
2022/11/26 03:23:36;;;;;;;27.60;14.87;;;;;;;5.64;100.00;101568.69;4984147;28;20209;-74
2022/11/26 03:26:02;;;;;;;31.57;13.20;;;;;;;5.63;100.00;101566.97;4984591;28;20218;-73
2022/11/26 03:28:29;;;;;;;28.83;14.10;;;;;;;5.65;100.00;101572.16;5004030;28;20209;-74
2022/11/26 03:30:55;;;;;;;30.87;14.33;;;;;;;5.64;100.00;101573.84;5013593;28;20201;-74
2022/11/26 03:33:21;;;;;;;32.10;15.03;;;;;;;5.63;100.00;101579.91;4990729;28;20237;-74
2022/11/26 03:35:48;;;;;;;24.13;13.10;;;;;;;5.64;100.00;101576.44;4990028;28;20629;-74
2022/11/26 03:38:17;;;;;;;27.23;13.83;;;;;;;5.65;100.00;101583.38;4986951;28;20205;-74
2022/11/26 03:40:43;;;;;;;29.60;14.87;;;;;;;5.67;100.00;101588.56;4992685;28;20202;-73
2022/11/26 03:43:10;;;;;;;30.50;13.43;;;;;;;5.67;100.00;101593.75;5011198;28;20191;-73
2022/11/26 03:45:36;;;;;;;30.97;15.67;;;;;;;5.68;100.00;101588.59;5001339;28;20293;-74
2022/11/26 03:48:02;;;;;;;27.63;13.37;;;;;;;5.68;100.00;101590.28;4988758;28;20720;-74
2022/11/26 03:50:29;;;;;;;32.30;14.83;;;;;;;5.65;100.00;101582.50;4983654;28;20275;-74
2022/11/26 03:52:55;;;;;;;26.87;13.90;;;;;;;5.64;100.00;101586.78;4980442;28;20194;-74
2022/11/26 03:55:23;;;;;;;34.90;14.83;;;;;;;5.65;100.00;101577.34;4965980;28;20394;-74
2022/11/26 03:57:49;;;;;;;32.50;14.13;;;;;;;5.65;100.00;101587.69;4981585;28;20609;-74
2022/11/26 04:00:16;;;;;;;33.17;14.50;;;;;;;5.64;100.00;101584.22;5000896;28;20199;-73
2022/11/26 04:02:42;;;;;;;28.40;14.53;;;;;;;5.67;100.00;101585.97;4996069;28;20217;-74
2022/11/26 04:05:09;;;;;;;23.47;12.20;;;;;;;5.64;100.00;101591.09;4977748;28;20206;-74
2022/11/26 04:07:35;;;;;;;33.63;15.60;;;;;;;5.63;100.00;101592.84;4979473;28;20225;-74
2022/11/26 04:10:02;;;;;;;30.10;15.20;;;;;;;5.63;100.00;101603.19;4987817;28;20198;-73
2022/11/26 04:12:29;;;;;;;30.33;14.63;;;;;;;5.67;100.00;101596.31;4992636;28;20206;-74
2022/11/26 04:14:56;;;;;;;29.70;14.53;;;;;;;5.64;100.00;101601.47;4982188;28;20205;-74
2022/11/26 04:17:22;;;;;;;29.50;14.33;;;;;;;5.64;100.00;101606.63;4978861;28;20225;-74
2022/11/26 04:19:48;;;;;;;41.83;16.20;;;;;;;5.67;100.00;101615.28;4993703;28;20194;-74
2022/11/26 04:22:15;;;;;;;33.30;16.47;;;;;;;5.68;100.00;101613.56;4990468;28;20225;-73
2022/11/26 04:24:41;;;;;;;32.13;14.47;;;;;;;5.69;100.00;101616.16;4980153;28;20213;-73
2022/11/26 04:27:08;;;;;;;32.87;14.73;;;;;;;5.70;100.00;101614.47;4999896;28;20230;-74
2022/11/26 04:29:36;;;;;;;36.07;15.27;;;;;;;5.70;100.00;101617.06;4989366;28;20205;-74
2022/11/26 04:32:03;;;;;;;35.67;15.23;;;;;;;5.70;100.00;101619.66;4980155;28;20662;-74
2022/11/26 04:34:29;;;;;;;33.80;15.03;;;;;;;5.71;100.00;101628.28;4978996;28;20665;-74
2022/11/26 04:36:55;;;;;;;31.23;13.97;;;;;;;5.73;100.00;101623.97;5002073;28;20472;-74
2022/11/26 04:39:22;;;;;;;35.17;15.20;;;;;;;5.72;100.00;101620.53;4994835;23;20238;-71
2022/11/26 04:41:48;;;;;;;33.17;14.47;;;;;;;5.73;100.00;101630.00;4979908;28;20232;-70
2022/11/26 04:44:15;;;;;;;35.47;15.73;;;;;;;5.75;100.00;101630.03;4979792;28;20288;-71
2022/11/26 04:46:42;;;;;;;35.23;14.73;;;;;;;5.75;100.00;101635.19;4981584;28;20833;-71
2022/11/26 04:49:09;;;;;;;33.93;15.40;;;;;;;5.75;100.00;101642.97;4979950;28;20217;-72
2022/11/26 04:51:35;;;;;;;35.07;16.10;;;;;;;5.75;100.00;101648.13;4979703;28;20204;-71
2022/11/26 04:54:02;;;;;;;35.33;15.00;;;;;;;5.76;100.00;101649.88;4977602;28;20562;-71
2022/11/26 04:56:28;;;;;;;36.27;14.80;;;;;;;5.75;100.00;101659.38;4993723;28;20308;-70
2022/11/26 04:58:54;;;;;;;31.00;15.10;;;;;;;5.77;100.00;101662.84;4977550;28;20213;-72
2022/11/26 05:01:21;;;;;;;32.97;14.50;;;;;;;5.76;100.00;101668.00;4988187;28;20228;-71
2022/11/26 05:03:49;;;;;;;28.23;12.73;;;;;;;5.77;100.00;101669.72;4979168;28;20611;-71
2022/11/26 05:06:15;;;;;;;28.37;14.30;;;;;;;5.77;100.00;101667.13;4974917;28;20205;-70
2022/11/26 05:08:42;;;;;;;28.97;15.37;;;;;;;5.77;100.00;101670.63;4977990;28;20222;-72
2022/11/26 05:11:08;;;;;;;27.80;14.13;;;;;;;5.77;100.00;101678.38;4977841;28;20206;-71
2022/11/26 05:13:34;;;;;;;27.63;14.03;;;;;;;5.76;100.00;101676.63;4976680;28;20209;-71
2022/11/26 05:16:01;;;;;;;30.73;14.13;;;;;;;5.76;100.00;101675.78;4974981;28;20199;-71
2022/11/26 05:18:27;;;;;;;30.37;13.43;;;;;;;5.76;100.00;101679.22;4977989;28;20722;-71
2022/11/26 05:20:55;;;;;;;34.93;16.17;;;;;;;5.76;100.00;101684.38;4974327;28;20199;-71
2022/11/26 05:23:21;;;;;;;29.93;14.30;;;;;;;5.77;100.00;101688.72;4978138;28;20282;-71
2022/11/26 05:25:49;;;;;;;34.53;14.43;;;;;;;5.80;100.00;101691.31;4979825;28;20251;-70
2022/11/26 05:28:16;;;;;;;35.40;15.47;;;;;;;5.79;100.00;101691.34;4980715;28;20222;-70
2022/11/26 05:30:42;;;;;;;27.87;14.97;;;;;;;5.78;100.00;101697.34;4982103;28;20235;-71
2022/11/26 05:33:09;;;;;;;28.07;14.33;;;;;;;5.79;100.00;101699.09;4983124;28;20462;-70
2022/11/26 05:35:37;;;;;;;29.93;14.30;;;;;;;5.79;100.00;101699.09;4979956;28;20696;-71
2022/11/26 05:38:05;;;;;;;28.43;13.63;;;;;;;5.77;100.00;101703.38;4982425;28;20636;-71
2022/11/26 05:40:32;;;;;;;31.20;14.87;;;;;;;5.78;100.00;101703.38;4978184;28;20371;-71
2022/11/26 05:42:58;;;;;;;31.17;13.90;;;;;;;5.78;100.00;101711.16;4990774;28;20221;-71
2022/11/26 05:45:25;;;;;;;31.87;14.60;;;;;;;5.78;100.00;101718.06;4977504;28;20206;-71
2022/11/26 05:47:51;;;;;;;28.97;13.70;;;;;;;5.78;100.00;101716.31;4980026;28;20619;-71
2022/11/26 05:50:17;;;;;;;29.73;13.93;;;;;;;5.80;100.00;101718.94;4982070;28;20206;-72
2022/11/26 05:52:44;;;;;;;40.53;15.27;;;;;;;5.82;100.00;101717.22;4983824;28;20243;-71
2022/11/26 05:55:11;;;;;;;35.67;15.23;;;;;;;5.82;100.00;101712.94;4982171;28;20211;-70
2022/11/26 05:57:38;;;;;;;27.33;14.80;;;;;;;5.82;100.00;101725.00;4977508;28;20210;-72
2022/11/26 06:00:06;;;;;;;33.47;14.17;;;;;;;5.82;100.00;101725.00;4986002;28;20288;-70
2022/11/26 06:02:38;;;;;;;33.80;15.90;;;;;;;5.84;100.00;101731.94;4982509;28;20222;-71
2022/11/26 06:05:06;;;;;;;33.90;15.60;;;;;;;5.83;100.00;101729.34;4980235;28;20896;-72
2022/11/26 06:07:33;;;;;;;37.40;15.23;;;;;;;5.84;100.00;101738.81;4980943;28;20210;-70
2022/11/26 06:09:59;;;;;;;38.03;16.03;;;;;;;5.84;100.00;101739.72;4979099;28;20210;-72
2022/11/26 06:12:27;;;;;;;32.13;14.53;;;;;;;5.85;100.00;101740.56;4981672;28;20744;-72
2022/11/26 06:14:53;;;;;;;32.43;15.07;;;;;;;5.84;100.00;101747.47;4976486;28;20208;-71
2022/11/26 06:17:20;;;;;;;33.30;14.80;;;;;;;5.85;100.00;101751.78;4977545;28;20547;-72
2022/11/26 06:19:46;;;;;;;30.30;14.03;;;;;;;5.84;100.00;101749.16;4978056;28;20222;-72
2022/11/26 06:22:13;;;;;;;31.40;13.27;;;;;;;5.84;100.00;101747.47;4984805;28;20225;-72
2022/11/26 06:24:39;;;;;;;30.60;13.50;;;;;;;5.83;100.00;101750.91;4978744;28;20206;-71
2022/11/26 06:27:05;;;;;;;28.70;12.40;;;;;;;5.84;100.00;101750.06;4981589;28;20206;-70
2022/11/26 06:29:33;;;;;;;25.03;12.00;;;;;;;5.84;100.00;101762.09;4979678;28;20605;-72
2022/11/26 06:32:00;;;;;;;26.33;13.77;;;;;;;5.83;100.00;101763.84;4982223;28;20204;-71
2022/11/26 06:34:26;;;;;;;27.57;12.27;;;;;;;5.84;100.00;101764.69;4982478;28;20292;-70
2022/11/26 06:36:52;;;;;;;24.80;12.97;;;;;;;5.84;100.00;101770.75;4982020;28;20658;-71
2022/11/26 06:39:19;;;;;;;33.83;13.90;;;;;;;5.86;100.00;101770.78;4982770;28;20226;-71
2022/11/26 06:41:45;;;;;;;22.73;11.93;;;;;;;5.85;100.00;101777.66;4982181;28;20836;-71
2022/11/26 06:44:12;;;;;;;24.90;12.23;;;;;;;5.85;100.00;101785.44;4977966;28;20199;-71
2022/11/26 06:46:39;;;;;;;26.27;12.60;;;;;;;5.84;100.00;101788.88;4984863;28;20210;-70
2022/11/26 06:49:06;;;;;;;25.03;12.40;;;;;;;5.85;100.00;101793.19;4980541;28;20301;-71
2022/11/26 06:51:33;;;;;;;23.13;11.53;;;;;;;5.86;100.00;101794.09;4983299;28;20669;-71
2022/11/26 06:54:00;;;;;;;21.90;11.93;;;;;;;5.87;100.00;101796.69;4980880;28;20202;-70
2022/11/26 06:56:26;;;;;;;24.83;12.00;;;;;;;5.86;100.00;101799.25;4982101;28;20199;-70
2022/11/26 06:58:54;;;;;;;23.80;12.43;;;;;;;5.85;100.00;101805.28;4980871;28;20627;-71
2022/11/26 07:01:23;;;;;;;28.27;12.83;;;;;;;5.87;100.00;101801.88;4980691;28;20561;-71
2022/11/26 07:03:52;;;;;;;21.53;12.37;;;;;;;5.87;100.00;101813.91;4980653;28;20245;-70
2022/11/26 07:06:19;;;;;;;25.27;11.97;;;;;;;5.88;100.00;101810.50;4983134;28;20230;-70
2022/11/26 07:08:47;;;;;;;27.07;12.47;;;;;;;5.88;100.00;101807.91;4980528;28;20685;-70
2022/11/26 07:11:14;;;;;;;24.77;11.80;;;;;;;5.87;100.00;101822.56;4979965;28;20203;-71
2022/11/26 07:13:40;;;;;;;22.23;11.73;;;;;;;5.89;100.00;101822.56;4981231;28;20213;-72
2022/11/26 07:16:07;;;;;;;22.57;11.73;;;;;;;5.87;100.00;101827.75;4977973;28;20289;-71
2022/11/26 07:18:34;;;;;;;24.23;11.67;;;;;;;5.90;100.00;101821.72;4977224;28;20283;-72
2022/11/26 07:21:07;;;;;;;26.10;11.63;;;;;;;5.89;100.00;101827.75;4979760;28;20281;-71
2022/11/26 07:23:33;;;;;;;27.10;12.33;;;;;;;5.91;100.00;101832.94;4979382;28;20720;-71
2022/11/26 07:26:00;;;;;;;24.70;12.43;;;;;;;5.92;100.00;101834.69;4979752;28;20195;-71
2022/11/26 07:28:27;;;;;;;25.17;12.10;;;;;;;5.92;100.00;101834.69;4982438;28;20654;-72
2022/11/26 07:30:53;;;;;;;23.30;12.57;;;;;;;5.93;100.00;101841.59;4982246;28;20277;-71
2022/11/26 07:33:20;;;;;;;24.07;12.50;;;;;;;5.93;100.00;101841.59;4983273;28;20209;-71
2022/11/26 07:35:46;;;;;;;23.33;12.67;;;;;;;5.95;100.00;101847.69;4980648;28;20209;-71
2022/11/26 07:38:14;;;;;;;23.10;11.23;;;;;;;5.94;100.00;101854.56;4977970;28;20315;-72
2022/11/26 07:40:40;;;;;;;23.57;11.80;;;;;;;5.94;100.00;101854.56;4979226;28;20194;-71
2022/11/26 07:43:06;;;;;;;22.33;12.20;;;;;;;5.93;100.00;101860.59;4975138;28;20319;-71
2022/11/26 07:45:36;;;;;;;19.80;11.13;;;;;;;5.93;100.00;101859.72;4978538;28;20198;-71
2022/11/26 07:48:03;;;;;;;21.90;11.60;;;;;;;5.93;100.00;101862.31;4980511;28;20229;-71
2022/11/26 07:50:29;;;;;;;30.43;12.03;;;;;;;5.94;100.00;101859.75;4979398;28;20205;-71
2022/11/26 07:52:56;;;;;;;22.97;11.33;;;;;;;5.95;100.00;101861.50;4976125;28;20229;-71
2022/11/26 07:55:23;;;;;;;22.90;11.83;;;;;;;5.96;100.00;101865.88;4974340;28;20201;-71
2022/11/26 07:57:50;;;;;;;28.60;11.93;;;;;;;5.98;100.00;101860.69;4976796;28;20243;-71
2022/11/26 08:00:17;;;;;;;20.57;11.20;;;;;;;5.98;100.00;101866.75;4976608;28;20201;-71
2022/11/26 08:02:44;;;;;;;44.83;19.50;;;;;;;5.99;100.00;101870.19;4982388;28;20225;-71
2022/11/26 08:05:10;;;;;;;46.47;20.50;;;;;;;5.99;100.00;101871.06;4981927;28;20547;-72
2022/11/26 08:07:36;;;;;;;28.83;14.03;;;;;;;5.99;100.00;101881.41;4979160;28;20219;-72
2022/11/26 08:10:04;;;;;;;56.67;24.23;;;;;;;6.01;100.00;101884.03;4981256;28;20203;-71
2022/11/26 08:12:31;;;;;;;38.70;16.70;;;;;;;6.01;100.00;101881.44;4979014;28;20646;-72
2022/11/26 08:14:58;;;;;;;27.67;12.97;;;;;;;6.00;100.00;101883.16;4977692;28;20203;-71
2022/11/26 08:17:24;;;;;;;25.53;13.37;;;;;;;6.01;100.00;101894.38;4977736;28;20213;-72
2022/11/26 08:19:51;;;;;;;30.33;14.00;;;;;;;6.02;100.00;101897.00;4976408;28;20563;-71
2022/11/26 08:22:17;;;;;;;26.97;14.07;;;;;;;6.02;100.00;101891.81;4973672;28;20208;-72
2022/11/26 08:24:43;;;;;;;22.73;10.67;;;;;;;6.02;100.00;101893.56;4976189;28;20614;-70
2022/11/26 08:27:10;;;;;;;24.80;11.23;;;;;;;6.03;100.00;101900.44;4980372;28;20671;-71
2022/11/26 08:29:38;;;;;;;24.80;13.23;;;;;;;6.04;100.00;101897.88;4978463;28;20614;-71
2022/11/26 08:32:04;;;;;;;22.10;12.13;;;;;;;6.06;100.00;101900.50;4977992;28;20217;-71
2022/11/26 08:34:32;;;;;;;24.90;11.93;;;;;;;6.05;100.00;101904.81;4977500;28;20201;-70
2022/11/26 08:36:59;;;;;;;21.20;12.23;;;;;;;6.07;100.00;101903.09;4969168;28;20738;-71
2022/11/26 08:39:25;;;;;;;20.83;10.83;;;;;;;6.12;100.00;101907.47;4976904;28;20252;-71
2022/11/26 08:41:52;;;;;;;21.40;10.20;;;;;;;6.17;100.00;101906.66;4977886;28;20206;-71
2022/11/26 08:44:18;;;;;;;20.40;10.50;;;;;;;6.23;100.00;101913.66;4976907;28;20291;-71
2022/11/26 08:46:46;;;;;;;18.73;10.07;;;;;;;6.29;100.00;101918.03;4976864;28;20193;-70
2022/11/26 08:49:14;;;;;;;22.03;9.37;;;;;;;6.31;100.00;101913.75;4977357;28;20233;-71
2022/11/26 08:51:41;;;;;;;20.77;9.87;;;;;;;6.32;100.00;101918.94;4971489;28;20704;-71
2022/11/26 08:54:07;;;;;;;25.43;10.23;;;;;;;6.31;100.00;101929.28;4971321;28;20210;-71
2022/11/26 08:56:34;;;;;;;24.83;10.23;;;;;;;6.32;100.00;101925.88;4977146;28;20202;-72
2022/11/26 08:59:00;;;;;;;21.20;11.30;;;;;;;6.31;100.00;101934.47;4994788;28;20699;-71
2022/11/26 09:01:29;;;;;;;22.07;11.13;;;;;;;6.32;100.00;101934.50;4975741;28;20306;-71
2022/11/26 09:03:59;;;;;;;23.27;10.90;;;;;;;6.31;100.00;101939.66;4968256;28;20627;-70
2022/11/26 09:06:27;;;;;;;23.60;11.77;;;;;;;6.35;100.00;101936.25;4976766;28;20718;-72
2022/11/26 09:09:12;;;;;;;21.03;9.03;;;;;;;6.35;100.00;101942.31;4981467;28;20300;-71
2022/11/26 09:11:41;;;;;;;16.43;8.83;;;;;;;6.41;100.00;101937.19;4976753;28;20942;-71
2022/11/26 09:14:08;;;;;;;23.40;9.73;;;;;;;6.46;100.00;101939.84;4975347;28;20565;-70
2022/11/26 09:16:35;;;;;;;22.03;8.33;;;;;;;6.46;100.00;101939.84;4978074;28;20217;-72
2022/11/26 09:19:05;;;;;;;20.60;8.17;;;;;;;6.48;100.00;101945.06;4977740;28;20291;-70
2022/11/26 09:21:33;;;;;;;17.47;8.40;;;;;;;6.48;100.00;101942.47;4971788;28;20227;-71
2022/11/26 09:23:59;;;;;;;17.10;8.13;;;;;;;6.54;100.00;101945.97;4974053;28;20698;-71
2022/11/26 09:26:25;;;;;;;22.33;9.17;;;;;;;6.57;100.00;101945.16;4975080;28;20571;-70
2022/11/26 09:28:52;;;;;;;20.33;8.37;;;;;;;6.56;100.00;101956.34;4970388;28;20226;-70
2022/11/26 09:31:19;;;;;;;18.23;8.27;;;;;;;6.58;100.00;101960.72;4974902;28;20554;-71
2022/11/26 09:33:46;;;;;;;18.27;8.03;;;;;;;6.56;100.00;101959.84;4969625;28;20234;-71
2022/11/26 09:36:15;;;;;;;17.27;7.37;;;;;;;6.56;100.00;101966.72;4973211;28;20591;-69
2022/11/26 09:38:41;;;;;;;17.87;6.13;;;;;;;6.51;100.00;101953.72;4978963;28;20238;-70
2022/11/26 09:41:22;;;;;;;12.37;6.53;;;;;;;6.55;100.00;101959.81;4971693;28;20466;-70
2022/11/26 09:44:05;;;;;;;16.20;7.07;;;;;;;6.52;100.00;101968.41;4976889;28;21121;-70
2022/11/26 09:46:38;;;;;;;9.73;5.93;;;;;;;6.54;100.00;101965.84;4974763;28;20567;-71
2022/11/26 09:49:05;;;;;;;14.07;6.97;;;;;;;6.59;100.00;101966.75;4980081;28;20234;-71
2022/11/26 09:51:34;;;;;;;14.07;5.80;;;;;;;6.55;100.00;101963.28;4970966;28;20201;-70
2022/11/26 09:54:03;;;;;;;10.23;5.50;;;;;;;6.53;100.00;101974.47;4975324;28;20515;-71
2022/11/26 09:56:31;;;;;;;17.30;6.20;;;;;;;6.52;100.00;101972.72;4975005;28;20195;-71
2022/11/26 09:59:01;;;;;;;18.07;6.70;;;;;;;6.51;100.00;101976.16;4973004;28;20548;-71
2022/11/26 10:01:30;;;;;;;13.80;5.77;;;;;;;6.53;100.00;101977.06;4969731;28;20281;-70
2022/11/26 10:03:56;;;;;;;12.87;6.03;;;;;;;6.50;100.00;101987.41;4973314;28;20746;-72
2022/11/26 10:06:34;;;;;;;12.30;5.93;;;;;;;6.47;100.00;101988.19;4973430;28;20214;-72
2022/11/26 10:09:21;;;;;;;10.40;5.60;;;;;;;6.48;100.00;101995.16;4970965;28;20522;-70
2022/11/26 10:11:56;;;;;;;15.97;6.70;;;;;;;6.48;100.00;101996.88;4973652;28;20697;-70
2022/11/26 10:14:44;;;;;;;10.93;5.77;;;;;;;6.45;100.00;101992.50;4977372;28;20206;-72
2022/11/26 10:17:26;;;;;;;12.30;5.43;;;;;;;6.45;100.00;102002.88;4980077;28;20212;-70
2022/11/26 10:20:08;;;;;;;11.97;5.53;;;;;;;6.44;100.00;101991.66;4975315;28;20207;-71
2022/11/26 10:22:38;;;;;;;9.40;5.90;;;;;;;6.44;100.00;102004.59;4977903;28;20209;-70
2022/11/26 10:25:14;;;;;;;13.87;5.67;;;;;;;6.44;100.00;102004.59;4973715;28;20594;-71
2022/11/26 10:27:41;;;;;;;16.33;6.10;;;;;;;6.39;100.00;102006.25;4977644;28;20562;-71
2022/11/26 10:30:16;;;;;;;11.43;5.80;;;;;;;6.39;100.00;102008.00;4990681;28;20224;-71
2022/11/26 10:32:45;;;;;;;15.27;6.33;;;;;;;6.38;100.00;102007.09;4976635;28;20514;-71
2022/11/26 10:35:15;;;;;;;18.10;6.03;;;;;;;6.36;100.00;102013.97;4978515;28;20211;-71
2022/11/26 10:37:42;;;;;;;14.13;5.13;;;;;;;6.35;100.00;102016.53;4976729;28;20230;-71
2022/11/26 10:40:23;;;;;;;11.00;5.20;;;;;;;6.34;100.00;102010.50;5015551;23;20841;-75
2022/11/26 10:42:59;;;;;;;12.37;5.03;;;;;;;6.39;100.00;102013.16;5015204;28;20297;-75
2022/11/26 10:45:34;;;;;;;11.53;5.83;;;;;;;6.41;100.00;102017.50;5019652;28;20233;-75
2022/11/26 10:48:16;;;;;;;11.30;5.23;;;;;;;6.41;100.00;102014.06;5014743;28;20202;-75
2022/11/26 10:50:54;;;;;;;16.20;5.03;;;;;;;6.39;100.00;102018.34;5011891;28;20202;-76
2022/11/26 10:53:23;;;;;;;9.10;4.60;;;;;;;6.42;100.00;102015.78;5010551;28;20216;-75
2022/11/26 10:55:53;;;;;;;10.67;4.73;;;;;;;6.46;100.00;102016.72;4994333;28;20211;-75
2022/11/26 10:58:23;;;;;;;13.80;4.33;;;;;;;6.51;100.00;102022.81;4994805;28;20240;-75
2022/11/26 11:01:02;;;;;;;18.00;4.87;;;;;;;6.49;100.00;102028.00;5008633;28;20228;-75
2022/11/26 11:03:31;;;;;;;15.33;5.40;;;;;;;6.46;100.00;102029.66;4998006;28;20316;-75
2022/11/26 11:06:22;;;;;;;12.07;4.93;;;;;;;6.45;100.00;102031.38;5011634;28;20243;-74
2022/11/26 11:08:51;;;;;;;11.50;4.57;;;;;;;6.47;100.00;102028.81;5004098;28;20202;-75
2022/11/26 11:11:21;;;;;;;10.13;4.10;;;;;;;6.49;100.00;102029.69;5011769;28;20207;-75
2022/11/26 11:13:48;;;;;;;10.47;4.80;;;;;;;6.48;100.00;102028.81;5010048;28;20240;-75
2022/11/26 11:16:19;;;;;;;11.83;5.43;;;;;;;6.49;100.00;102030.59;4998073;28;20261;-76
2022/11/26 11:18:51;;;;;;;16.80;5.83;;;;;;;6.51;100.00;102036.66;4995457;28;20207;-76